Terminal Aerodrome Forecast
Issued by NWS

Home | Current Version | Previous Version | Text Only | Print | Product List | Glossary On
Versions: 1 2 3 4 5 6 7 8 9 10 11 12 13 14 15 16 17 18 19 20 21 22 23 24 25 26 27
000
FTUS42 KFFC 042305 AAA
TAFPDK
TAF AMD
KPDK 042305Z 0423/0518 25008KT 5SM SHRA SCT025 BKN040
      TEMPO 0423/0503 VRB15G25KT 3SM TSRA BKN025CB
     FM050600 28006KT 4SM BR BKN015
     FM051100 00000KT 2SM BR BKN012
     FM051500 25006KT 6SM -SHRA SCT012 BKN045=

USA.gov is the U.S. government's official web portal to all federal, state and local government web resources and services.